Latest Coastal Weather Observations for Bougainville Reef

IDQ60701

Issued at 4:21 pm EST Sunday 2 August 2015 (issued every 10 minutes, with the page automatically refreshed every 10 minutes)

About coastal observations | Map of coastal stations | Coastal observations for QLD | Marine services | Other Formats
Station Details ID: 200840 Name: BOUGAINVILLE REEF Lat: -15.49 Lon: 147.12 Height: 0.0 m
Data from the previous 72 hours. | See also: Recent months for locations in Queensland
Date/Time
EST
Temp

°C
Wind Pressure Rain
since 9am
mm
Weather Cloud Vis
km
Sea
Height
m
Swell
Dir
 
Speed
knots
Gust
knots
hPa Trend Height
m
Period
s
Dir
02/04:00pm 24.5 SE 18 22 1015.7 - - - - - - - - -
02/03:30pm 24.1 SSE 13 17 1015.9 - - - - - - - - -
02/03:00pm 23.9 SSE 13 16 1016.2 - - - - - - - - -
02/02:30pm 24.0 SSE 16 19 1016.6 - - - - - - - - -
02/02:00pm 24.0 SE 15 19 1016.9 - - - - - - - - -
02/01:30pm 23.9 SE 17 19 1017.2 - - - - - - - - -
02/01:00pm 24.3 SE 16 18 1017.5 - - - - - - - - -
02/12:30pm 24.5 SE 16 19 1017.9 - - - - - - - - -
02/12:00pm 24.6 SE 17 19 1018.2 - - - - - - - - -
02/11:30am 24.7 ESE 17 20 1018.5 - - - - - - - - -
02/11:00am 24.5 SE 16 19 1018.7 - - - - - - - - -
02/10:30am 24.7 SE 17 19 1018.9 - - - - - - - - -
02/10:00am 24.7 SE 22 23 1018.9 - - - - - - - - -
02/09:30am 24.7 SE 21 24 1019.0 - - - - - - - - -
02/09:00am 24.8 ESE 21 25 1018.5 - - - - - - - - -
02/08:30am 24.7 ESE 21 23 1018.4 - - - - - - - - -
02/08:00am 23.7 SE 18 23 1018.0 - - - - - - - - -
02/07:36am 23.3 SE 20 32 1017.9 - - - - - - - - -
02/07:30am 23.7 ESE 20 23 1017.9 - - - - - - - - -
02/07:00am 23.7 ESE 22 21 1017.5 - - - - - - - - -
02/06:30am 24.1 ESE 21 27 1017.2 - - - - - - - - -
02/06:00am 24.3 ESE 19 21 1016.8 - - - - - - - - -
02/05:30am 24.2 ESE 20 24 1016.8 - - - - - - - - -
02/05:00am 23.6 ESE 21 27 1016.5 - - - - - - - - -
02/04:30am 23.0 ESE 19 23 1016.5 - - - - - - - - -
02/04:14am 22.0 ESE 23 33 1016.8 - - - - - - - - -
02/04:00am 23.8 ESE 19 24 1016.5 - - - - - - - - -
02/03:30am 24.0 ESE 21 25 1016.7 - - - - - - - - -
02/03:00am 24.3 SE 24 28 1016.6 - - - - - - - - -
02/02:30am 24.2 SE 22 26 1016.8 - - - - - - - - -
02/02:00am 24.1 SE 23 27 1016.6 - - - - - - - - -
02/01:30am 24.1 SE 23 27 1016.9 - - - - - - - - -
02/01:00am 24.2 ESE 23 27 1017.0 - - - - - - - - -
02/12:30am 24.4 ESE 25 29 1017.2 - - - - - - - - -
02/12:00am 24.3 ESE 23 28 1017.2 - - - - - - - - -
 
Date/Time
EST
Temp

°C
Wind Pressure Rain
since 9am
mm
Weather Cloud Vis
km
Sea
Height
m
Swell
Dir
 
Speed
knots
Gust
knots
hPa Trend Height
m
Period
s
Dir
01/11:30pm 24.4 ESE 25 30 1017.4 - - - - - - - - -
01/11:00pm 24.2 ESE 25 29 1017.4 - - - - - - - - -
01/10:30pm 24.1 SE 22 27 1017.4 - - - - - - - - -
01/10:00pm 24.0 ESE 24 26 1017.5 - - - - - - - - -
01/09:30pm 24.0 SE 24 29 1017.5 - - - - - - - - -
01/09:00pm 23.9 SE 22 27 1017.4 - - - - - - - - -
01/08:30pm 23.9 SE 22 26 1017.4 - - - - - - - - -
01/08:00pm 24.0 SE 23 28 1016.9 - - - - - - - - -
01/07:30pm 24.0 SE 22 25 1016.6 - - - - - - - - -
01/07:00pm 24.0 SE 24 29 1016.1 - - - - - - - - -
01/06:30pm 24.1 SE 24 28 1015.9 - - - - - - - - -
01/06:00pm 24.0 SE 22 28 1015.5 - - - - - - - - -
01/05:30pm 24.1 SE 24 28 1015.5 - - - - - - - - -
01/05:00pm 24.1 SE 24 27 1015.3 - - - - - - - - -
01/04:30pm 24.2 SE 23 26 1015.5 - - - - - - - - -
01/04:00pm 24.3 SE 23 27 1015.4 - - - - - - - - -
01/03:30pm 24.2 SE 23 27 1015.4 - - - - - - - - -
01/03:00pm 24.1 SE 23 26 1015.5 - - - - - - - - -
01/02:30pm 24.1 SE 24 27 1015.6 - - - - - - - - -
01/02:00pm 24.1 SE 24 25 1015.8 - - - - - - - - -
01/01:30pm 24.1 SE 22 26 1016.1 - - - - - - - - -
01/01:00pm 24.3 SE 23 26 1016.4 - - - - - - - - -
01/12:30pm 24.0 SE 24 28 1016.8 - - - - - - - - -
01/12:00pm 24.1 SE 25 28 1017.3 - - - - - - - - -
01/11:30am 24.2 SE 24 28 1017.5 - - - - - - - - -
01/11:00am 24.1 SE 26 28 1017.9 - - - - - - - - -
01/10:30am 24.1 SE 25 30 1018.2 - - - - - - - - -
01/10:00am 24.1 SE 25 27 1018.1 - - - - - - - - -
01/09:30am 24.2 SE 22 27 1018.2 - - - - - - - - -
01/09:00am 24.0 SE 23 27 1017.8 - - - - - - - - -
01/08:30am 24.0 SE 24 27 1017.8 - - - - - - - - -
01/08:00am 23.9 SE 22 28 1017.4 - - - - - - - - -
01/07:30am 23.9 SE 24 27 1017.3 - - - - - - - - -
01/07:00am 23.7 ESE 23 27 1017.0 - - - - - - - - -
01/06:30am 23.7 ESE 23 26 1017.1 - - - - - - - - -
01/06:00am 23.7 SE 23 27 1016.6 - - - - - - - - -
01/05:30am 23.7 SE 25 28 1016.5 - - - - - - - - -
01/05:00am 23.4 SE 23 26 1016.4 - - - - - - - - -
01/04:30am 23.7 ESE 26 30 1016.4 - - - - - - - - -
01/04:00am 23.9 SE 21 26 1016.4 - - - - - - - - -
01/03:30am 23.9 SE 20 23 1016.5 - - - - - - - - -
01/03:00am 24.0 ESE 22 27 1016.4 - - - - - - - - -
01/02:30am 23.9 ESE 24 29 1016.5 - - - - - - - - -
01/02:00am 23.9 ESE 22 27 1016.8 - - - - - - - - -
01/01:30am 23.9 ESE 22 25 1017.1 - - - - - - - - -
01/01:00am 23.8 SE 24 29 1017.1 - - - - - - - - -
01/12:30am 23.9 ESE 24 30 1017.2 - - - - - - - - -
01/12:00am 24.0 SE 25 29 1017.3 - - - - - - - - -
 
Date/Time
EST
Temp

°C
Wind Pressure Rain
since 9am
mm
Weather Cloud Vis
km
Sea
Height
m
Swell
Dir
 
Speed
knots
Gust
knots
hPa Trend Height
m
Period
s
Dir
31/11:30pm 23.9 ESE 26 31 1017.4 - - - - - - - - -
31/11:00pm 24.2 SE 26 33 1017.3 - - - - - - - - -
31/10:30pm 24.0 SE 26 30 1017.5 - - - - - - - - -
31/10:00pm 24.1 SE 24 28 1017.3 - - - - - - - - -
31/09:30pm 24.1 SE 25 29 1017.4 - - - - - - - - -
31/09:00pm 24.2 SE 26 33 1017.0 - - - - - - - - -
31/08:30pm 24.3 SE 26 29 1017.0 - - - - - - - - -
31/08:00pm 24.2 SE 25 30 1016.6 - - - - - - - - -
31/07:30pm 24.1 SSE 24 29 1016.6 - - - - - - - - -
31/07:00pm 24.3 SE 25 29 1016.1 - - - - - - - - -
31/06:30pm 24.2 SE 23 28 1016.0 - - - - - - - - -
31/06:00pm 24.1 SE 24 26 1015.7 - - - - - - - - -
31/05:30pm 24.1 SE 24 27 1015.7 - - - - - - - - -
31/05:00pm 24.1 SE 24 26 1015.2 - - - - - - - - -
31/04:30pm 24.1 SE 24 29 1015.2 - - - - - - - - -
31/04:00pm 24.0 SE 23 28 1014.9 - - - - - - - - -
31/03:30pm 24.0 SE 24 27 1015.1 - - - - - - - - -
31/03:00pm 24.0 SE 23 28 1015.1 - - - - - - - - -
31/02:30pm 23.9 SE 24 28 1015.5 - - - - - - - - -
31/02:00pm 24.0 SE 23 27 1015.8 - - - - - - - - -
31/01:30pm 23.9 SE 23 27 1016.1 - - - - - - - - -
31/01:00pm 23.9 SE 25 27 1016.5 - - - - - - - - -
31/12:30pm 24.1 SE 24 28 1016.8 - - - - - - - - -
31/12:00pm 24.1 SE 24 28 1017.3 - - - - - - - - -
31/11:30am 24.1 SE 24 27 1017.6 - - - - - - - - -
31/11:00am 24.0 SE 24 28 1017.7 - - - - - - - - -
31/10:30am 23.9 SE 25 28 1018.0 - - - - - - - - -
31/10:00am 23.8 SE 24 29 1018.1 - - - - - - - - -
31/09:30am 23.9 SE 25 28 1018.3 - - - - - - - - -
31/09:00am 23.8 SE 25 28 1018.3 - - - - - - - - -
31/08:30am 23.8 SE 23 29 1018.2 - - - - - - - - -
31/08:00am 23.6 SE 23 27 1017.8 - - - - - - - - -
31/07:30am 23.6 SE 24 28 1017.8 - - - - - - - - -
31/07:00am 23.7 SE 26 29 1017.3 - - - - - - - - -
31/06:30am 23.7 SE 28 31 1017.1 - - - - - - - - -
31/06:00am 23.8 SE 26 33 1016.8 - - - - - - - - -
31/05:30am 23.6 SE 25 31 1017.0 - - - - - - - - -
31/05:00am 23.9 SE 24 28 1016.7 - - - - - - - - -
31/04:30am 23.8 SE 23 27 1016.9 - - - - - - - - -
31/04:00am 23.4 SE 23 29 1017.1 - - - - - - - - -
31/03:30am 23.4 SE 23 27 1017.4 - - - - - - - - -
31/03:00am 23.7 SE 21 26 1017.4 - - - - - - - - -
31/02:30am 23.6 SE 23 26 1017.7 - - - - - - - - -
31/02:00am 23.7 SE 24 29 1017.7 - - - - - - - - -
31/01:30am 23.6 SE 26 30 1018.0 - - - - - - - - -
31/01:00am 23.7 SE 26 31 1018.3 - - - - - - - - -
31/12:30am 23.8 SE 26 31 1018.5 - - - - - - - - -
31/12:00am 23.8 SE 23 29 1018.6 - - - - - - - - -
 
Date/Time
EST
Temp

°C
Wind Pressure Rain
since 9am
mm
Weather Cloud Vis
km
Sea
Height
m
Swell
Dir
 
Speed
knots
Gust
knots
hPa Trend Height
m
Period
s
Dir
30/11:30pm 23.8 SE 24 29 1018.8 - - - - - - - - -
30/11:00pm 23.8 SE 25 29 1018.6 - - - - - - - - -
30/10:30pm 24.0 SE 26 30 1018.7 - - - - - - - - -
30/10:00pm 24.0 SE 23 29 1018.6 - - - - - - - - -
30/09:30pm 23.9 SE 23 27 1018.7 - - - - - - - - -
30/09:00pm 23.0 SE 24 24 1018.5 - - - - - - - - -
30/08:30pm 24.0 SE 24 27 1018.3 - - - - - - - - -
30/08:00pm 23.8 SE 23 26 1018.0 - - - - - - - - -
30/07:30pm 24.0 SE 23 25 1018.0 - - - - - - - - -
30/07:00pm 24.1 SE 22 27 1017.8 - - - - - - - - -
30/06:30pm 24.0 SE 22 26 1017.7 - - - - - - - - -
30/06:00pm 24.0 SE 23 26 1017.3 - - - - - - - - -
30/05:30pm 24.2 SE 23 27 1017.2 - - - - - - - - -
30/05:00pm 24.0 SE 23 26 1016.9 - - - - - - - - -
30/04:30pm 24.0 SE 24 30 1016.8 - - - - - - - - -

Other Formats:

Comma delimited format used in spreadsheet applications
http://www.bom.gov.au/fwo/IDQ60701/IDQ60701.95288.axf

JavaScript Object Notation format (JSON) in row-major order
http://www.bom.gov.au/fwo/IDQ60701/IDQ60701.95288.json